Nearby METAR Reports

Here are local weather reports from nearby weather stations and airports.

KHFD - Hartford/Brainar, Connecticut, USA
Distance from station: NE 5mi, 8km
Updated: Fri, 09/25/20 2:30am EDT
unable to load KHFD data RC=
unable to load KHFD data RC=
 
KMMK - Meriden, Connecticut, USA
Distance from station: SSW 13mi, 21km
Updated: Fri, 09/25/20 2:30am EDT
unable to load KMMK data RC=
unable to load KMMK data RC=
 
 
KBDL - Windsor Locks, Connecticut, USA
Distance from station: N 17mi, 28km
Updated: Fri, 09/25/20 1:51am EDT
Few Clouds
Few Clouds
 Wind from calm
Wind: Calm
Temperature: 54°F , 12°C
Dew Point: 52°F , 11°C
Humidity: 94%
Barometer: 30.02 inHg , 1016.6 hPa
Clouds: Few Clouds
Visibility: 10 miles , 16 km
Cloud details: Few Clouds 25000 ft
2020/09/25 05:51 KBDL 250551Z 00000KT 10SM FEW250 12/11 A3002 RMK AO2 VIS 1 RWY 6-24 SLP164 T01220111 10206 20122 53007
KSNC - Chester, Connecticut, USA
Distance from station: SSE 24mi, 38km
Updated: Fri, 09/25/20 2:30am EDT
unable to load KSNC data RC=
unable to load KSNC data RC=
 
 
KOXC - Oxford/Waterbury, Connecticut, USA
Distance from station: SW 26mi, 42km
Updated: Fri, 09/25/20 1:51am EDT
Clear
Clear
 Wind from calm
Wind: Calm
Temperature: 55°F , 13°C
Dew Point: 54°F , 12°C
Humidity: 94%
Barometer: 30.05 inHg , 1017.6 hPa
Clouds: Clear
Visibility: 10 miles , 16 km
2020/09/25 05:51 KOXC 250551Z AUTO 00000KT 10SM CLR 13/12 A3005 RMK AO2 SLP183 T01280122 10178 20122 53003
KIJD - Willimantic, Connecticut, USA
Distance from station: E 28mi, 45km
Updated: Fri, 09/25/20 2:07am EDT
Mist, Clear
Mist, Clear
 Wind from calm
Wind: Calm
Temperature: 52°F , 11°C
Dew Point: 52°F , 11°C
Humidity: 100%
Barometer: 30.03 inHg , 1016.9 hPa
Summary: Mist
Clouds: Clear
Visibility: 3 miles , 5 km
2020/09/25 06:07 KIJD 250607Z AUTO 00000KT 3SM BR CLR 11/11 A3003 RMK AO2 T01110106
 
KHVN - New Haven/Tweed, Connecticut, USA
Distance from station: SSW 30mi, 48km
Updated: Fri, 09/25/20 1:53am EDT
Mist, Clear
Mist, Clear
 Wind from calm
Wind: Calm
Temperature: 57°F , 14°C
Dew Point: 55°F , 13°C
Humidity: 94%
Barometer: 30.03 inHg , 1016.9 hPa
Summary: Mist
Clouds: Clear
Visibility: 6 miles , 10 km
2020/09/25 05:53 KHVN 250553Z AUTO 00000KT 6SM BR CLR 14/13 A3003 RMK AO2 SLP168 T01440133 10217 20139 51009 $
KBAF - Westfield, Massachusetts, USA
Distance from station: 0 33mi, 54km
Updated: Fri, 09/25/20 1:53am EDT
Mist, Clear
Mist, Clear
 Wind from calm
Wind: Calm
Temperature: 52°F , 11°C
Dew Point: 52°F , 11°C
Humidity: 100%
Barometer: 30.01 inHg , 1016.3 hPa
Summary: Mist
Clouds: Clear
Visibility: 5 miles , 8 km
2020/09/25 05:53 KBAF 250553Z AUTO 00000KT 5SM BR CLR 11/11 A3001 RMK AO2 SLP163 T01060106 10167 20106 53005
 
KCEF - Chicopee/Westove, Massachusetts, USA
Distance from station: NNE 37mi, 60km
Updated: Fri, 09/25/20 1:56am EDT
Clear
Clear
 Wind from calm
Wind: Calm
Temperature: 50°F , 10°C
Dew Point: 50°F , 10°C
Humidity: 100%
Barometer: 30.00 inHg , 1015.9 hPa
Clouds: Clear
Visibility: 10 miles , 16 km
2020/09/25 05:56 KCEF 250556Z AUTO 00000KT 10SM CLR 10/10 A3000 RMK AO2 SLP165 T00980096 10150 20094 52006
KBDR - Bridgeport, Connecticut, USA
Distance from station: SSW 42mi, 67km
Updated: Fri, 09/25/20 1:52am EDT
Clear
Clear
 Wind from W
Wind: W 3 mph , 6 km/h
Temperature: 63°F , 17°C
Dew Point: 57°F , 14°C
Humidity: 83%
Barometer: 30.03 inHg , 1016.9 hPa
Clouds: Clear
Visibility: 10 miles , 16 km
2020/09/25 05:52 KBDR 250552Z AUTO 27003KT 10SM CLR 17/14 A3003 RMK AO2 SLP168 T01720139 10217 20167 53007
 
KGON - Groton/New Londo, Connecticut, USA
Distance from station: SE 42mi, 68km
Updated: Fri, 09/25/20 2:00am EDT
Mist, Clear
Mist, Clear
 Wind from calm
Wind: Calm
Temperature: 55°F , 13°C
Dew Point: 55°F , 13°C
Humidity: 100%
Barometer: 30.03 inHg , 1016.9 hPa
Summary: Mist
Clouds: Clear
Visibility: 4 miles , 6 km
2020/09/25 06:00 KGON 250600Z AUTO 00000KT 4SM BR CLR 13/13 A3003 RMK AO2 T01330128
KDXR - Danbury, Connecticut, USA
Distance from station: WSW 45mi, 73km
Updated: Fri, 09/25/20 1:53am EDT
Clear
Clear
 Wind from WSW
Wind: WSW 3 mph , 6 km/h
Temperature: 52°F , 11°C
Dew Point: 52°F , 11°C
Humidity: 100%
Barometer: 30.05 inHg , 1017.6 hPa
Clouds: Clear
Visibility: 10 miles , 16 km
2020/09/25 05:53 KDXR 250553Z AUTO 24003KT 10SM CLR 11/11 A3005 RMK AO2 SLP173 T01110106 10172 20111 53006